createdAt,value
2022-09-04T00:00:12.115Z,1.30
2022-09-04T00:03:06.863Z,1.70
2022-09-04T00:05:35.306Z,1.40
2022-09-04T00:08:17.104Z,1.50
2022-09-04T00:10:51.331Z,1.30
2022-09-04T00:13:24.366Z,1.58
2022-09-04T00:15:57.183Z,1.40
2022-09-04T00:18:33.575Z,1.90
2022-09-04T00:21:13.798Z,1.80
2022-09-04T00:23:51.036Z,1.60
2022-09-04T00:26:33.366Z,1.55
2022-09-04T00:29:04.082Z,1.35
2022-09-04T00:31:36.710Z,1.83
2022-09-04T00:34:25.930Z,1.57
2022-09-04T00:36:54.631Z,1.73
2022-09-04T00:39:35.794Z,1.60
2022-09-04T00:42:08.738Z,1.65
2022-09-04T00:44:48.056Z,1.45
2022-09-04T00:47:39.118Z,2.13
2022-09-04T00:50:07.225Z,1.70
2022-09-04T00:52:58.324Z,1.95
2022-09-04T00:55:38.850Z,1.73
2022-09-04T00:58:11.239Z,1.90
2022-09-04T01:00:38.421Z,2.10
2022-09-04T01:03:07.784Z,1.77
2022-09-04T01:05:57.898Z,1.60
2022-09-04T01:08:56.163Z,1.67
2022-09-04T01:11:45.086Z,1.60
2022-09-04T01:14:40.142Z,1.85
2022-09-04T01:17:21.511Z,2.47
2022-09-04T01:20:14.323Z,1.60
2022-09-04T01:23:04.633Z,1.67
2022-09-04T01:25:47.786Z,1.50
2022-09-04T01:28:32.557Z,2.08
2022-09-04T01:31:26.736Z,1.90
2022-09-04T01:36:49.031Z,1.70
2022-09-04T01:39:18.807Z,2.15
2022-09-04T01:41:58.967Z,1.80
2022-09-04T01:44:27.206Z,1.73
2022-09-04T01:47:09.613Z,1.77
2022-09-04T01:49:57.153Z,1.75
2022-09-04T01:52:36.605Z,1.90
2022-09-04T01:55:14.170Z,1.40
2022-09-04T01:57:49.320Z,1.60
2022-09-04T02:00:23.151Z,1.70
2022-09-04T02:03:02.170Z,1.90
2022-09-04T02:05:48.404Z,1.70
2022-09-04T02:08:31.063Z,1.60
2022-09-04T02:11:27.833Z,2.00
2022-09-04T02:14:09.351Z,2.15
2022-09-04T02:17:12.447Z,1.92
2022-09-04T02:20:00.989Z,1.92
2022-09-04T02:22:35.930Z,1.88
2022-09-04T02:25:31.726Z,1.90
2022-09-04T02:28:19.974Z,1.95
2022-09-04T02:30:55.535Z,1.70
2022-09-04T02:33:57.185Z,1.77
2022-09-04T02:36:41.373Z,1.90
2022-09-04T02:39:17.366Z,1.83
2022-09-04T02:41:58.215Z,1.80
2022-09-04T02:45:22.028Z,2.15
2022-09-04T02:48:06.293Z,1.77
2022-09-04T02:50:46.140Z,1.90
2022-09-04T02:53:35.074Z,1.80
2022-09-04T02:56:25.402Z,2.10
2022-09-04T02:59:10.614Z,1.73
2022-09-04T03:02:05.978Z,2.20
2022-09-04T03:04:49.773Z,2.03
2022-09-04T03:07:26.899Z,2.00
2022-09-04T03:09:59.557Z,2.28
2022-09-04T03:12:26.700Z,1.90
2022-09-04T03:15:00.244Z,2.28
2022-09-04T03:19:57.126Z,1.83
2022-09-04T03:22:28.385Z,1.92
2022-09-04T03:25:22.489Z,2.53
2022-09-04T03:30:16.427Z,2.00
2022-09-04T03:33:02.710Z,2.20
2022-09-04T03:35:49.383Z,2.10
2022-09-04T03:38:43.173Z,2.33
2022-09-04T03:41:39.275Z,2.45
2022-09-04T03:44:36.619Z,2.15
2022-09-04T03:47:12.409Z,2.50
2022-09-04T03:49:51.248Z,2.28
2022-09-04T03:52:20.713Z,2.15
2022-09-04T03:54:56.569Z,2.17
2022-09-04T03:57:35.342Z,1.77
2022-09-04T04:00:19.765Z,2.28
2022-09-04T04:02:52.325Z,2.25
2022-09-04T04:05:30.754Z,2.33
2022-09-04T04:08:29.047Z,2.42
2022-09-04T04:11:43.310Z,3.22
2022-09-04T04:14:13.494Z,2.60
2022-09-04T04:16:42.806Z,2.33
2022-09-04T04:19:26.919Z,2.00
2022-09-04T04:22:05.543Z,1.98
2022-09-04T04:24:38.985Z,2.40
2022-09-04T04:27:36.161Z,2.22
2022-09-04T04:30:18.754Z,2.35
2022-09-04T04:33:15.540Z,2.38
2022-09-04T04:36:10.106Z,2.75
2022-09-04T04:38:56.379Z,2.20
2022-09-04T04:42:01.618Z,2.67
2022-09-04T04:44:53.826Z,2.20
2022-09-04T04:47:36.927Z,2.22
2022-09-04T04:50:15.817Z,2.63
2022-09-04T04:53:19.420Z,2.65
2022-09-04T04:55:51.923Z,2.72
2022-09-04T04:58:26.699Z,2.70
2022-09-04T05:01:06.151Z,2.55
2022-09-04T05:03:37.735Z,2.60
2022-09-04T05:06:18.035Z,3.15
2022-09-04T05:08:55.913Z,3.13
2022-09-04T05:11:43.986Z,3.15
2022-09-04T05:14:28.793Z,2.78
2022-09-04T05:17:04.440Z,2.70
2022-09-04T05:19:55.015Z,2.97
2022-09-04T05:22:33.648Z,2.65
2022-09-04T05:25:09.994Z,2.95
2022-09-04T05:27:51.603Z,3.15
2022-09-04T05:30:22.130Z,2.95
2022-09-04T05:32:56.409Z,2.75
2022-09-04T05:35:35.324Z,2.78
2022-09-04T05:38:14.966Z,3.05
2022-09-04T05:41:05.735Z,2.80
2022-09-04T05:43:58.554Z,3.05
2022-09-04T05:46:33.857Z,3.15
2022-09-04T05:49:05.435Z,2.75
2022-09-04T05:51:48.626Z,2.83
2022-09-04T05:54:22.405Z,3.28
2022-09-04T05:56:57.932Z,2.88
2022-09-04T06:00:02.065Z,2.63
2022-09-04T06:02:59.479Z,2.58
2022-09-04T06:05:55.334Z,3.05
2022-09-04T06:08:32.940Z,2.90
2022-09-04T06:11:29.429Z,2.75
2022-09-04T06:14:17.181Z,2.60
2022-09-04T06:17:07.007Z,2.97
2022-09-04T06:19:33.459Z,3.00
2022-09-04T06:22:24.951Z,3.50
2022-09-04T06:25:09.397Z,2.70
2022-09-04T06:28:07.824Z,2.97
2022-09-04T06:30:45.515Z,2.70
2022-09-04T06:33:28.766Z,3.40
2022-09-04T06:36:06.741Z,2.50
2022-09-04T06:39:06.662Z,3.15
2022-09-04T06:41:42.227Z,3.53
2022-09-04T06:44:23.294Z,2.80
2022-09-04T06:46:52.565Z,3.03
2022-09-04T06:49:53.085Z,2.70
2022-09-04T06:52:33.944Z,3.00
2022-09-04T06:55:24.702Z,3.00
2022-09-04T06:58:06.392Z,2.90
2022-09-04T07:00:40.590Z,3.30
2022-09-04T07:03:31.873Z,3.22
2022-09-04T07:06:11.348Z,3.13
2022-09-04T07:08:52.930Z,3.60
2022-09-04T07:11:41.621Z,4.50
2022-09-04T07:14:31.385Z,5.00
2022-09-04T07:17:15.607Z,5.13
2022-09-04T07:20:12.775Z,5.97
2022-09-04T07:23:10.084Z,4.47
2022-09-04T07:25:40.552Z,3.30
2022-09-04T07:28:10.740Z,2.80
2022-09-04T07:30:42.852Z,2.28
2022-09-04T07:33:27.525Z,2.75
2022-09-04T07:36:07.959Z,2.47
2022-09-04T07:38:44.175Z,2.42
2022-09-04T07:41:28.706Z,2.30
2022-09-04T07:44:03.639Z,2.45
2022-09-04T07:46:33.379Z,2.10
2022-09-04T07:49:32.414Z,2.20
2022-09-04T07:52:07.491Z,2.42
2022-09-04T07:54:42.227Z,2.30
2022-09-04T07:57:30.712Z,2.22
2022-09-04T08:00:32.725Z,2.22
2022-09-04T08:03:30.356Z,2.13
2022-09-04T08:06:14.070Z,2.10
2022-09-04T08:08:44.363Z,1.92
2022-09-04T08:11:37.007Z,2.15
2022-09-04T08:14:10.013Z,2.05
2022-09-04T08:17:20.833Z,2.25
2022-09-04T08:20:18.832Z,2.40
2022-09-04T08:23:36.145Z,2.50
2022-09-04T08:26:21.119Z,2.05
2022-09-04T08:29:15.298Z,2.38
2022-09-04T08:31:55.447Z,2.47
2022-09-04T08:34:37.258Z,2.30
2022-09-04T08:37:29.583Z,2.05
2022-09-04T08:40:14.805Z,2.08
2022-09-04T08:43:04.026Z,1.90
2022-09-04T08:45:43.307Z,1.80
2022-09-04T08:48:47.516Z,2.00
2022-09-04T08:51:40.265Z,1.90
2022-09-04T08:54:20.708Z,2.40
2022-09-04T08:56:56.533Z,1.90
2022-09-04T08:59:53.252Z,2.28
2022-09-04T09:03:07.399Z,2.00
2022-09-04T09:05:39.808Z,2.00
2022-09-04T09:08:31.801Z,2.10
2022-09-04T09:11:23.735Z,1.95
2022-09-04T09:14:14.797Z,2.03
2022-09-04T09:17:06.761Z,1.92
2022-09-04T09:19:39.634Z,1.85
2022-09-04T09:22:29.404Z,2.15
2022-09-04T09:25:11.197Z,1.70
2022-09-04T09:27:56.490Z,1.90
2022-09-04T09:30:24.062Z,1.70
2022-09-04T09:33:15.470Z,1.85
2022-09-04T09:35:57.894Z,1.67
2022-09-04T09:38:36.510Z,1.70
2022-09-04T09:41:31.582Z,1.92
2022-09-04T09:44:20.203Z,1.80
2022-09-04T09:47:09.530Z,1.67
2022-09-04T09:49:54.817Z,1.50
2022-09-04T09:52:35.996Z,1.58
2022-09-04T09:55:08.411Z,1.90
2022-09-04T09:58:02.470Z,1.70
2022-09-04T10:00:38.358Z,1.80
2022-09-04T10:03:29.417Z,1.77
2022-09-04T10:06:14.112Z,1.70
2022-09-04T10:08:49.831Z,1.65
2022-09-04T10:11:34.069Z,1.73
2022-09-04T10:14:16.315Z,1.73
2022-09-04T10:17:04.587Z,1.80
2022-09-04T10:20:08.615Z,1.65
2022-09-04T10:25:44.920Z,1.40
2022-09-04T10:28:26.558Z,1.80
2022-09-04T10:31:10.121Z,1.90
2022-09-04T10:34:02.284Z,1.50
2022-09-04T10:36:46.489Z,1.60
2022-09-04T10:39:40.835Z,1.50
2022-09-04T10:42:49.330Z,1.50
2022-09-04T10:45:34.835Z,1.70
2022-09-04T10:48:28.595Z,1.42
2022-09-04T10:51:27.544Z,2.15
2022-09-04T10:54:20.777Z,1.55
2022-09-04T10:56:56.287Z,1.40
2022-09-04T10:59:43.454Z,1.60
2022-09-04T11:02:22.321Z,1.83
2022-09-04T11:05:07.010Z,1.60
2022-09-04T11:08:01.802Z,1.40
2022-09-04T11:10:49.649Z,1.60
2022-09-04T11:13:54.420Z,1.40
2022-09-04T11:16:45.214Z,1.80
2022-09-04T11:19:37.438Z,1.50
2022-09-04T11:22:41.546Z,1.60
2022-09-04T11:25:47.118Z,1.60
2022-09-04T11:28:48.867Z,1.70
2022-09-04T11:31:48.281Z,1.65
2022-09-04T11:34:33.482Z,1.48
2022-09-04T11:37:36.881Z,1.55
2022-09-04T11:40:18.973Z,1.55
2022-09-04T11:43:00.558Z,1.33
2022-09-04T11:45:37.916Z,1.48
2022-09-04T11:48:42.046Z,1.60
2022-09-04T11:51:28.734Z,1.67
2022-09-04T11:54:29.618Z,1.40
2022-09-04T11:57:34.105Z,1.38
2022-09-04T12:00:16.200Z,1.63
2022-09-04T12:02:49.460Z,1.80
2022-09-04T12:05:40.803Z,1.48
2022-09-04T12:08:35.758Z,1.60
2022-09-04T12:11:49.469Z,1.63
2022-09-04T12:14:56.470Z,1.73
2022-09-04T12:17:33.581Z,1.30
2022-09-04T12:20:08.388Z,1.50
2022-09-04T12:22:51.702Z,1.40
2022-09-04T12:25:57.824Z,1.88
2022-09-04T12:28:47.989Z,1.15
2022-09-04T12:31:23.478Z,1.23
2022-09-04T12:34:10.934Z,1.52
2022-09-04T12:36:59.197Z,1.40
2022-09-04T12:39:45.689Z,1.48
2022-09-04T12:42:29.073Z,1.40
2022-09-04T12:45:18.389Z,1.33
2022-09-04T12:48:26.197Z,1.38
2022-09-04T12:51:12.554Z,1.40
2022-09-04T12:53:52.475Z,1.60
2022-09-04T12:56:30.522Z,1.52
2022-09-04T12:59:23.924Z,1.50
2022-09-04T13:02:02.751Z,1.60
2022-09-04T13:04:49.707Z,1.42
2022-09-04T13:07:53.405Z,1.40
2022-09-04T13:10:25.182Z,2.03
2022-09-04T13:13:07.128Z,1.35
2022-09-04T13:15:39.595Z,2.05
2022-09-04T13:18:18.171Z,1.33
2022-09-04T13:21:25.459Z,2.13
2022-09-04T13:23:57.229Z,1.73
2022-09-04T13:26:34.825Z,1.50
2022-09-04T13:29:16.881Z,1.50
2022-09-04T13:32:04.394Z,1.80
2022-09-04T13:34:42.997Z,1.77
2022-09-04T13:37:23.768Z,1.63
2022-09-04T13:40:03.077Z,1.58
2022-09-04T13:42:57.595Z,1.60
2022-09-04T13:45:29.977Z,1.40
2022-09-04T13:48:01.033Z,1.60
2022-09-04T13:50:32.244Z,1.58
2022-09-04T13:53:06.066Z,2.00
2022-09-04T13:55:41.612Z,1.80
2022-09-04T13:58:15.357Z,1.67
2022-09-04T14:00:47.054Z,1.80
2022-09-04T14:03:44.393Z,1.57
2022-09-04T14:06:14.785Z,1.58
2022-09-04T14:08:43.110Z,1.98
2022-09-04T14:11:44.432Z,1.65
2022-09-04T14:14:25.649Z,2.00
2022-09-04T14:16:55.321Z,2.08
2022-09-04T14:20:00.709Z,1.70
2022-09-04T14:22:52.217Z,1.52
2022-09-04T14:25:30.581Z,1.60
2022-09-04T14:28:03.440Z,1.30
2022-09-04T14:33:25.079Z,2.58
2022-09-04T14:36:03.645Z,1.73
2022-09-04T14:38:38.795Z,1.48
2022-09-04T14:41:20.632Z,1.40
2022-09-04T14:44:18.572Z,1.67
2022-09-04T14:47:10.119Z,1.63
2022-09-04T14:49:47.470Z,1.80
2022-09-04T14:52:23.998Z,2.10
2022-09-04T14:54:57.578Z,2.53
2022-09-04T14:57:36.253Z,1.70
2022-09-04T15:00:10.553Z,1.90
2022-09-04T15:02:42.221Z,1.85
2022-09-04T15:05:20.755Z,1.63
2022-09-04T15:07:52.714Z,1.48
2022-09-04T15:10:42.129Z,1.60
2022-09-04T15:13:26.973Z,1.63
2022-09-04T15:16:21.221Z,1.55
2022-09-04T15:19:28.249Z,1.50
2022-09-04T15:21:57.849Z,1.60
2022-09-04T15:24:29.429Z,1.75
2022-09-04T15:27:17.706Z,1.60
2022-09-04T15:29:53.451Z,1.65
2022-09-04T15:32:32.198Z,1.70
2022-09-04T15:35:16.969Z,1.48
2022-09-04T15:37:48.325Z,1.30
2022-09-04T15:40:28.894Z,1.75
2022-09-04T15:43:04.422Z,1.60
2022-09-04T15:45:40.490Z,1.50
2022-09-04T15:48:16.069Z,1.60
2022-09-04T15:50:56.787Z,1.60
2022-09-04T15:53:28.110Z,1.63
2022-09-04T15:56:10.346Z,1.70
2022-09-04T15:58:47.858Z,1.80
2022-09-04T16:01:18.234Z,1.50
2022-09-04T16:04:07.124Z,1.85
2022-09-04T16:07:15.085Z,1.42
2022-09-04T16:09:46.878Z,1.48
2022-09-04T16:12:36.734Z,1.35
2022-09-04T16:15:05.749Z,1.40
2022-09-04T16:17:34.006Z,1.60
2022-09-04T16:20:27.226Z,1.77
2022-09-04T16:23:08.378Z,1.83
2022-09-04T16:25:38.771Z,1.80
2022-09-04T16:28:12.191Z,1.55
2022-09-04T16:30:41.411Z,1.83
2022-09-04T16:33:27.844Z,1.70
2022-09-04T16:36:20.364Z,1.70
2022-09-04T16:38:52.386Z,1.80
2022-09-04T16:41:25.534Z,1.50
2022-09-04T16:44:28.460Z,1.70
2022-09-04T16:47:05.939Z,1.77
2022-09-04T16:49:40.985Z,2.00
2022-09-04T16:52:21.822Z,2.20
2022-09-04T16:54:56.055Z,2.42
2022-09-04T16:57:29.334Z,1.95
2022-09-04T17:00:25.132Z,2.25
2022-09-04T17:03:17.716Z,1.83
2022-09-04T17:05:51.037Z,1.70
2022-09-04T17:08:36.825Z,1.92
2022-09-04T17:11:29.992Z,1.85
2022-09-04T17:13:58.663Z,1.80
2022-09-04T17:16:35.366Z,1.52
2022-09-04T17:19:01.946Z,1.63
2022-09-04T17:29:04.405Z,1.80
2022-09-04T17:29:09.206Z,1.60
2022-09-04T17:29:12.480Z,1.70
2022-09-04T17:31:28.727Z,1.60
2022-09-04T17:40:06.262Z,1.45
2022-09-04T17:40:46.715Z,1.70
2022-09-04T17:40:54.949Z,1.88
2022-09-04T17:42:37.125Z,1.83
2022-09-04T17:45:26.714Z,1.92
2022-09-04T17:48:53.389Z,1.75
2022-09-04T17:51:25.797Z,1.70
2022-09-04T17:54:01.361Z,1.58
2022-09-04T17:56:32.347Z,1.88
2022-09-04T17:59:07.423Z,2.00
2022-09-04T18:01:42.097Z,2.17
2022-09-04T18:04:27.336Z,1.58
2022-09-04T18:07:44.755Z,1.92
2022-09-04T18:10:08.825Z,1.60
2022-09-04T18:12:51.968Z,1.65
2022-09-04T18:15:33.709Z,1.88
2022-09-04T18:18:09.966Z,1.60
2022-09-04T18:21:09.321Z,1.70
2022-09-04T18:23:51.627Z,2.00
2022-09-04T18:26:41.149Z,2.20
2022-09-04T18:31:04.573Z,1.75
2022-09-04T18:37:08.513Z,1.80
2022-09-04T18:37:25.486Z,1.88
2022-09-04T18:37:57.606Z,1.80
2022-09-04T18:40:39.179Z,1.77
2022-09-04T18:50:34.149Z,1.60
2022-09-04T18:50:40.227Z,1.67
2022-09-04T18:50:48.963Z,1.80
2022-09-04T18:51:54.795Z,1.60
2022-09-04T18:54:41.677Z,1.58
2022-09-04T18:57:49.160Z,2.00
2022-09-04T19:00:30.954Z,1.70
2022-09-04T19:03:17.971Z,1.67
2022-09-04T19:05:46.672Z,2.38
2022-09-04T19:08:23.390Z,1.50
2022-09-04T19:10:53.333Z,1.48
2022-09-04T19:13:53.572Z,1.80
2022-09-04T19:16:26.465Z,1.50
2022-09-04T19:19:02.212Z,1.58
2022-09-04T19:21:32.505Z,1.70
2022-09-04T19:24:31.447Z,1.67
2022-09-04T19:27:03.697Z,1.70
2022-09-04T19:30:03.141Z,1.70
2022-09-04T19:33:00.353Z,1.73
2022-09-04T19:35:36.788Z,1.67
2022-09-04T19:42:04.720Z,1.55
2022-09-04T19:45:55.729Z,1.77
2022-09-04T19:46:12.818Z,1.70
2022-09-04T19:47:27.630Z,1.77
2022-09-04T19:53:19.867Z,1.60
2022-09-04T19:53:33.442Z,1.90
2022-09-04T19:55:45.777Z,1.80
2022-09-04T19:58:18.262Z,1.70
2022-09-04T20:00:58.167Z,1.67
2022-09-04T20:03:35.847Z,1.90
2022-09-04T20:06:20.115Z,1.75
2022-09-04T20:09:02.749Z,1.90
2022-09-04T20:12:14.713Z,1.67
2022-09-04T20:14:50.117Z,1.80
2022-09-04T20:17:33.216Z,1.90
2022-09-04T20:20:03.979Z,1.80
2022-09-04T20:22:36.151Z,1.70
2022-09-04T20:25:24.496Z,2.00
2022-09-04T20:28:00.589Z,1.67
2022-09-04T20:30:27.506Z,1.98
2022-09-04T20:33:04.868Z,1.70
2022-09-04T20:35:35.728Z,1.90
2022-09-04T20:38:23.354Z,2.22
2022-09-04T20:40:55.584Z,3.22
2022-09-04T20:43:44.778Z,2.20
2022-09-04T20:48:09.035Z,2.38
2022-09-04T20:52:57.623Z,2.03
2022-09-04T20:53:05.236Z,1.90
2022-09-04T20:55:32.108Z,2.40
2022-09-04T21:03:09.574Z,2.10
2022-09-04T21:03:24.100Z,2.22
2022-09-04T21:04:05.347Z,2.05
2022-09-04T21:06:43.867Z,2.13
2022-09-04T21:09:31.822Z,2.10
2022-09-04T21:12:22.786Z,2.00
2022-09-04T21:14:55.118Z,2.10
2022-09-04T21:17:38.173Z,2.20
2022-09-04T21:20:26.197Z,2.33
2022-09-04T21:23:17.611Z,2.40
2022-09-04T21:25:55.583Z,2.38
2022-09-04T21:28:43.933Z,2.15
2022-09-04T21:31:19.345Z,2.42
2022-09-04T21:33:57.773Z,2.38
2022-09-04T21:36:33.939Z,2.10
2022-09-04T21:39:19.145Z,2.22
2022-09-04T21:42:16.794Z,2.72
2022-09-04T21:45:12.110Z,2.40
2022-09-04T21:47:44.949Z,3.28
2022-09-04T21:50:38.077Z,2.17
2022-09-04T21:53:22.868Z,2.40
2022-09-04T22:01:07.525Z,2.13
2022-09-04T22:02:39.062Z,2.30
2022-09-04T22:02:43.614Z,2.45
2022-09-04T22:05:21.295Z,2.42
2022-09-04T22:13:35.444Z,2.70
2022-09-04T22:13:37.742Z,2.40
2022-09-04T22:14:22.531Z,2.75
2022-09-04T22:17:07.329Z,2.60
2022-09-04T22:19:58.651Z,2.70
2022-09-04T22:22:43.206Z,2.55
2022-09-04T22:25:32.921Z,2.78
2022-09-04T22:28:09.238Z,2.58
2022-09-04T22:31:19.258Z,2.58
2022-09-04T22:34:16.805Z,2.42
2022-09-04T22:37:06.345Z,2.38
2022-09-04T22:40:05.563Z,2.28
2022-09-04T22:42:53.176Z,2.30
2022-09-04T22:45:49.022Z,2.70
2022-09-04T22:48:47.916Z,2.60
2022-09-04T22:51:38.285Z,2.58
2022-09-04T22:54:04.695Z,3.10
2022-09-04T22:56:43.026Z,2.60
2022-09-04T22:59:45.677Z,2.70
2022-09-04T23:02:48.147Z,2.55
2022-09-04T23:05:28.707Z,2.47
2022-09-04T23:13:46.678Z,2.58
2022-09-04T23:13:56.228Z,2.58
2022-09-04T23:14:42.808Z,2.72
2022-09-04T23:18:05.779Z,2.58
2022-09-04T23:26:35.913Z,2.72
2022-09-04T23:26:42.693Z,2.55
2022-09-04T23:27:22.411Z,2.58
2022-09-04T23:30:05.372Z,3.43
2022-09-04T23:32:36.012Z,2.47
2022-09-04T23:35:26.222Z,3.10
2022-09-04T23:38:17.046Z,2.90
2022-09-04T23:40:46.738Z,3.05
2022-09-04T23:43:36.255Z,3.30
2022-09-04T23:46:24.292Z,2.72
2022-09-04T23:49:10.045Z,2.80
2022-09-04T23:52:14.209Z,2.90
2022-09-04T23:55:03.181Z,3.38
2022-09-04T23:57:36.185Z,3.03
